Time;durP1;ratioP1;P1;durP2;ratioP2;P2;SDS_P1;SDS_P2;PMS_P1;PMS_P2;Temp;Humidity;BMP_temperature;BMP_pressure;BME280_temperature;BME280_humidity;BME280_pressure;Samples;Min_cycle;Max_cycle;Signal;HPM_P1;HPM_P2
2023/05/05 00:01:04;;;;;;;36.17;12.65;;;;;;;;;;5053268;28;20028;-78
2023/05/05 00:03:29;;;;;;;32.05;13.50;;;;;;;;;;5053974;28;20468;-78
2023/05/05 00:05:54;;;;;;;31.33;12.85;;;;;;;;;;5036317;28;20021;-79
2023/05/05 00:08:20;;;;;;;33.40;13.70;;;;;;;;;;5054282;28;20074;-80
2023/05/05 00:10:46;;;;;;;32.28;12.63;;;;;;;;;;5036194;28;20025;-80
2023/05/05 00:13:12;;;;;;;36.10;12.23;;;;;;;;;;5035811;28;20044;-79
2023/05/05 00:15:40;;;;;;;33.13;12.73;;;;;;;;;;5036194;28;20029;-79
2023/05/05 00:18:06;;;;;;;27.83;12.90;;;;;;;;;;5019789;28;20411;-79
2023/05/05 00:20:31;;;;;;;29.50;12.15;;;;;;;;;;5041954;28;20040;-79
2023/05/05 00:22:57;;;;;;;29.25;11.52;;;;;;;;;;5052466;28;20123;-78
2023/05/05 00:25:22;;;;;;;26.33;11.80;;;;;;;;;;5069503;28;20045;-80
2023/05/05 00:27:47;;;;;;;24.95;11.45;;;;;;;;;;5035612;28;20079;-78
2023/05/05 00:30:13;;;;;;;28.00;11.32;;;;;;;;;;5035876;28;20079;-77
2023/05/05 00:32:38;;;;;;;24.42;11.43;;;;;;;;;;5035778;28;20070;-77
2023/05/05 00:35:05;;;;;;;27.90;11.30;;;;;;;;;;5042920;28;20439;-78
2023/05/05 00:37:30;;;;;;;27.08;10.93;;;;;;;;;;5035889;28;20036;-76
2023/05/05 00:39:56;;;;;;;23.23;10.93;;;;;;;;;;5053590;28;20109;-78
2023/05/05 00:42:21;;;;;;;24.70;10.80;;;;;;;;;;5052309;28;20029;-79
2023/05/05 00:44:47;;;;;;;21.80;10.10;;;;;;;;;;5053555;28;20021;-80
2023/05/05 00:47:12;;;;;;;27.88;11.43;;;;;;;;;;5053542;28;20047;-80
2023/05/05 00:49:37;;;;;;;25.85;10.45;;;;;;;;;;5051990;28;20091;-79
2023/05/05 00:52:03;;;;;;;27.65;11.20;;;;;;;;;;5052217;28;20059;-79
2023/05/05 00:54:29;;;;;;;31.35;11.45;;;;;;;;;;5052455;28;20394;-79
2023/05/05 00:56:54;;;;;;;30.63;12.18;;;;;;;;;;5035730;28;20025;-80
2023/05/05 00:59:19;;;;;;;29.75;12.02;;;;;;;;;;5002841;28;20420;-79
2023/05/05 01:01:45;;;;;;;30.05;12.70;;;;;;;;;;5035596;28;20435;-79
2023/05/05 01:04:10;;;;;;;29.70;12.63;;;;;;;;;;5035767;28;20040;-79
2023/05/05 01:07:07;;;;;;;30.15;13.07;;;;;;;;;;5035526;28;20029;-79
2023/05/05 01:09:54;;;;;;;40.85;12.38;;;;;;;;;;5035168;28;20105;-79
2023/05/05 01:12:23;;;;;;;34.63;13.20;;;;;;;;;;5019056;28;20037;-80
2023/05/05 01:14:59;;;;;;;33.75;12.90;;;;;;;;;;5053171;28;20032;-79
2023/05/05 01:17:30;;;;;;;26.75;11.85;;;;;;;;;;5003654;28;20029;-78
2023/05/05 01:19:55;;;;;;;32.20;12.48;;;;;;;;;;5035503;28;20025;-78
2023/05/05 01:22:23;;;;;;;34.70;12.02;;;;;;;;;;5053232;28;20359;-79
2023/05/05 01:24:58;;;;;;;28.27;11.80;;;;;;;;;;5002848;28;20029;-78
2023/05/05 01:27:51;;;;;;;28.60;11.00;;;;;;;;;;5035786;28;20037;-79
2023/05/05 01:30:42;;;;;;;26.55;11.55;;;;;;;;;;5053161;28;20035;-78
2023/05/05 01:33:08;;;;;;;29.38;12.10;;;;;;;;;;5053165;28;20040;-78
2023/05/05 01:35:42;;;;;;;30.23;12.88;;;;;;;;;;5022541;28;20048;-79
2023/05/05 01:38:15;;;;;;;34.33;12.75;;;;;;;;;;5022955;28;20033;-79
2023/05/05 01:41:11;;;;;;;28.02;12.20;;;;;;;;;;5005920;28;20378;-78
2023/05/05 01:43:36;;;;;;;28.27;12.40;;;;;;;;;;5037293;28;20363;-80
2023/05/05 01:46:02;;;;;;;30.20;13.15;;;;;;;;;;5022430;28;20035;-79
2023/05/05 01:48:28;;;;;;;34.53;13.02;;;;;;;;;;5056548;28;20103;-79
2023/05/05 01:50:54;;;;;;;28.65;12.55;;;;;;;;;;5056549;28;20029;-78
2023/05/05 01:53:19;;;;;;;28.65;12.25;;;;;;;;;;5022003;28;20037;-78
2023/05/05 01:55:45;;;;;;;31.73;13.60;;;;;;;;;;5005555;28;20033;-78
2023/05/05 01:58:10;;;;;;;33.42;12.45;;;;;;;;;;5020514;28;20031;-77
2023/05/05 02:00:35;;;;;;;25.17;11.77;;;;;;;;;;5022222;28;20439;-78
2023/05/05 02:03:03;;;;;;;27.75;12.35;;;;;;;;;;5021990;28;20033;-78
2023/05/05 02:05:28;;;;;;;31.77;12.57;;;;;;;;;;5021885;28;20032;-78
2023/05/05 02:07:56;;;;;;;27.88;11.93;;;;;;;;;;5005460;28;20029;-79
2023/05/05 02:10:21;;;;;;;31.88;13.07;;;;;;;;;;5056277;28;20031;-77
2023/05/05 02:12:46;;;;;;;29.48;13.13;;;;;;;;;;5038335;28;20362;-78
2023/05/05 02:15:12;;;;;;;28.33;11.70;;;;;;;;;;5038220;28;20078;-78
2023/05/05 02:17:41;;;;;;;29.25;12.70;;;;;;;;;;5021790;28;20033;-78
2023/05/05 02:20:07;;;;;;;33.25;13.50;;;;;;;;;;5021908;28;20451;-78
2023/05/05 02:22:32;;;;;;;32.70;12.35;;;;;;;;;;5021479;28;20128;-77
2023/05/05 02:24:59;;;;;;;31.13;12.23;;;;;;;;;;5038176;28;20099;-77
2023/05/05 02:27:24;;;;;;;34.45;13.90;;;;;;;;;;5037935;28;20040;-80
2023/05/05 02:29:51;;;;;;;26.23;12.00;;;;;;;;;;5021607;28;20033;-78
2023/05/05 02:32:19;;;;;;;29.42;12.20;;;;;;;;;;5021756;28;20048;-78
2023/05/05 02:34:45;;;;;;;30.77;13.60;;;;;;;;;;5021665;28;20425;-78
2023/05/05 02:37:11;;;;;;;30.75;13.20;;;;;;;;;;5021058;28;20040;-77
2023/05/05 02:39:42;;;;;;;32.55;13.30;;;;;;;;;;5021278;28;20079;-78
2023/05/05 02:42:08;;;;;;;33.85;13.02;;;;;;;;;;5021637;28;20498;-77
2023/05/05 02:44:33;;;;;;;31.50;13.52;;;;;;;;;;5037828;28;20116;-78
2023/05/05 02:46:59;;;;;;;33.72;13.25;;;;;;;;;;5037644;28;20032;-78
2023/05/05 02:49:24;;;;;;;30.90;13.23;;;;;;;;;;5038064;28;20033;-78
2023/05/05 02:51:50;;;;;;;37.00;14.00;;;;;;;;;;5020801;28;20443;-78
2023/05/05 02:54:15;;;;;;;32.03;13.20;;;;;;;;;;5020986;28;20033;-78
2023/05/05 02:56:50;;;;;;;41.45;13.15;;;;;;;;;;5020977;28;20025;-77
2023/05/05 03:00:14;;;;;;;37.10;14.27;;;;;;;;;;5036895;28;20043;-80
2023/05/05 03:02:43;;;;;;;34.17;13.77;;;;;;;;;;4958202;28;20035;-79
2023/05/05 03:05:11;;;;;;;41.72;14.48;;;;;;;;;;4974440;28;20034;-81
2023/05/05 03:07:39;;;;;;;44.70;15.52;;;;;;;;;;5015937;28;20431;-80
2023/05/05 03:10:07;;;;;;;37.50;16.08;;;;;;;;;;5001899;28;20028;-78
2023/05/05 03:12:38;;;;;;;40.17;15.57;;;;;;;;;;5001268;28;20470;-78
2023/05/05 03:15:05;;;;;;;39.65;15.02;;;;;;;;;;5017614;28;20033;-80
2023/05/05 03:17:30;;;;;;;51.05;15.70;;;;;;;;;;5001181;28;20423;-78
2023/05/05 03:19:56;;;;;;;40.85;16.08;;;;;;;;;;4984810;28;20125;-79
2023/05/05 03:22:21;;;;;;;40.30;16.15;;;;;;;;;;5016856;28;20029;-79
2023/05/05 03:24:50;;;;;;;37.50;15.57;;;;;;;;;;5017220;28;20025;-79
2023/05/05 03:27:16;;;;;;;43.08;16.65;;;;;;;;;;4984511;28;20041;-79
2023/05/05 03:29:41;;;;;;;42.30;15.82;;;;;;;;;;5000578;28;20034;-79
2023/05/05 03:32:07;;;;;;;40.95;16.98;;;;;;;;;;5000639;28;20037;-80
2023/05/05 03:34:32;;;;;;;39.95;15.73;;;;;;;;;;4981305;28;20111;-79
2023/05/05 03:36:58;;;;;;;43.60;17.65;;;;;;;;;;4997423;28;20088;-79
2023/05/05 03:39:23;;;;;;;45.28;17.33;;;;;;;;;;4997261;28;20022;-79
2023/05/05 03:41:48;;;;;;;40.08;17.17;;;;;;;;;;4997354;28;20029;-80
2023/05/05 03:44:14;;;;;;;42.40;18.60;;;;;;;;;;5013496;28;20071;-80
2023/05/05 03:46:39;;;;;;;44.03;17.23;;;;;;;;;;4997003;28;20116;-80
2023/05/05 03:49:05;;;;;;;46.22;18.25;;;;;;;;;;4980743;28;20120;-78
2023/05/05 03:51:31;;;;;;;41.72;18.52;;;;;;;;;;5013120;28;20034;-80
2023/05/05 03:53:56;;;;;;;45.15;17.48;;;;;;;;;;5013252;28;20022;-80
2023/05/05 03:56:22;;;;;;;45.85;18.20;;;;;;;;;;4996689;28;20029;-79
2023/05/05 03:58:47;;;;;;;51.33;19.35;;;;;;;;;;4996863;28;20069;-79
2023/05/05 04:01:13;;;;;;;45.53;18.70;;;;;;;;;;4980808;28;20148;-79
2023/05/05 04:03:38;;;;;;;45.38;18.98;;;;;;;;;;5000109;28;20032;-79
2023/05/05 04:06:04;;;;;;;45.25;18.77;;;;;;;;;;5016087;28;20115;-80
2023/05/05 04:08:30;;;;;;;45.03;18.85;;;;;;;;;;5016342;28;20025;-78
2023/05/05 04:10:56;;;;;;;50.35;18.85;;;;;;;;;;5000018;28;20439;-79
2023/05/05 04:13:22;;;;;;;45.10;17.98;;;;;;;;;;5034145;28;20026;-79
2023/05/05 04:15:47;;;;;;;39.92;17.52;;;;;;;;;;5021670;28;20083;-79
2023/05/05 04:18:13;;;;;;;40.38;17.20;;;;;;;;;;5013805;28;20061;-79
2023/05/05 04:20:38;;;;;;;40.22;16.75;;;;;;;;;;4980479;28;20026;-79
2023/05/05 04:23:03;;;;;;;39.83;17.38;;;;;;;;;;4996290;28;20029;-80
2023/05/05 04:25:29;;;;;;;47.85;16.98;;;;;;;;;;5013748;28;20026;-79
2023/05/05 04:27:55;;;;;;;45.58;17.00;;;;;;;;;;5012532;28;20030;-79
2023/05/05 04:30:20;;;;;;;41.13;16.80;;;;;;;;;;5013967;28;20114;-78
2023/05/05 04:32:46;;;;;;;39.72;16.70;;;;;;;;;;5012272;28;20034;-79
2023/05/05 04:35:11;;;;;;;42.10;16.55;;;;;;;;;;4996212;28;20041;-79
2023/05/05 04:37:36;;;;;;;47.97;16.38;;;;;;;;;;4996259;28;20391;-80
2023/05/05 04:40:02;;;;;;;36.47;14.90;;;;;;;;;;4996447;28;20091;-79
2023/05/05 04:42:28;;;;;;;34.67;14.93;;;;;;;;;;5018788;28;20443;-79
2023/05/05 04:44:53;;;;;;;29.08;13.15;;;;;;;;;;5032747;28;20063;-79
2023/05/05 04:47:19;;;;;;;39.83;13.25;;;;;;;;;;5030815;28;20056;-78
2023/05/05 04:49:44;;;;;;;34.88;14.32;;;;;;;;;;5030686;28;20056;-78
2023/05/05 04:52:12;;;;;;;40.17;15.32;;;;;;;;;;5036193;28;20097;-79
2023/05/05 04:54:37;;;;;;;38.33;16.30;;;;;;;;;;5029071;28;20075;-78
2023/05/05 04:57:06;;;;;;;43.33;16.67;;;;;;;;;;5036716;28;20034;-78
2023/05/05 04:59:31;;;;;;;47.63;17.52;;;;;;;;;;4984353;28;20056;-77
2023/05/05 05:01:57;;;;;;;46.13;18.02;;;;;;;;;;5039300;28;20048;-78
2023/05/05 05:04:27;;;;;;;51.55;19.25;;;;;;;;;;5032810;28;20033;-78
2023/05/05 05:07:00;;;;;;;53.85;19.35;;;;;;;;;;5033675;28;20030;-78
2023/05/05 05:09:26;;;;;;;67.85;21.00;;;;;;;;;;5047148;28;20048;-77
2023/05/05 05:11:51;;;;;;;56.85;19.35;;;;;;;;;;5044317;28;20037;-78
2023/05/05 05:15:03;;;;;;;60.40;21.30;;;;;;;;;;5034788;28;20037;-81
2023/05/05 05:31:14;;;;;;;44.00;17.20;;;;;;;;;;5022756;23;20072;-81
2023/05/05 05:33:43;;;;;;;47.15;19.13;;;;;;;;;;4994824;28;20093;-83
2023/05/05 05:36:21;;;;;;;48.38;18.92;;;;;;;;;;5010717;28;20048;-81
2023/05/05 05:38:46;;;;;;;60.22;18.80;;;;;;;;;;5004577;28;20421;-76
2023/05/05 05:41:12;;;;;;;50.30;19.35;;;;;;;;;;5017338;28;20034;-79
2023/05/05 05:43:38;;;;;;;50.92;19.20;;;;;;;;;;4995817;28;20444;-78
2023/05/05 05:46:10;;;;;;;46.38;18.65;;;;;;;;;;5014975;28;20443;-79
2023/05/05 05:48:37;;;;;;;56.25;19.10;;;;;;;;;;4996605;28;20137;-76
2023/05/05 05:51:08;;;;;;;40.30;18.25;;;;;;;;;;5024218;28;20447;-76
2023/05/05 05:53:33;;;;;;;48.13;18.33;;;;;;;;;;4999859;28;20048;-77
2023/05/05 05:56:05;;;;;;;40.28;17.92;;;;;;;;;;5023083;28;20030;-75
2023/05/05 05:58:31;;;;;;;38.97;16.67;;;;;;;;;;5024775;28;20036;-76
2023/05/05 06:00:59;;;;;;;41.95;17.92;;;;;;;;;;4994091;28;20034;-76
2023/05/05 06:03:32;;;;;;;40.00;15.52;;;;;;;;;;5057120;23;20388;-81
2023/05/05 06:05:58;;;;;;;49.95;18.58;;;;;;;;;;5006934;28;20032;-83
2023/05/05 06:11:30;;;;;;;39.33;16.15;;;;;;;;;;5069064;22;20084;-81
2023/05/05 06:13:55;;;;;;;33.53;15.00;;;;;;;;;;5054045;28;20382;-84
2023/05/05 06:16:21;;;;;;;33.63;13.80;;;;;;;;;;5060278;28;20036;-82
2023/05/05 06:19:33;;;;;;;25.73;13.07;;;;;;;;;;5063909;28;20055;-85
2023/05/05 06:22:36;;;;;;;22.95;11.45;;;;;;;;;;5041444;28;20040;-86
2023/05/05 06:25:21;;;;;;;26.63;12.88;;;;;;;;;;5054866;28;20041;-87
2023/05/05 06:27:48;;;;;;;22.92;11.50;;;;;;;;;;5047870;28;20036;-85
2023/05/05 06:30:13;;;;;;;21.95;11.82;;;;;;;;;;5041110;28;20366;-85
2023/05/05 06:32:39;;;;;;;21.25;11.18;;;;;;;;;;5033880;28;20044;-87
2023/05/05 06:35:05;;;;;;;21.80;10.98;;;;;;;;;;5030413;28;20033;-84
2023/05/05 06:37:34;;;;;;;21.33;9.77;;;;;;;;;;5057292;28;20036;-79
2023/05/05 06:40:09;;;;;;;24.30;10.87;;;;;;;;;;5067300;28;20052;-85
2023/05/05 06:42:38;;;;;;;22.20;11.23;;;;;;;;;;5061932;28;20036;-88
2023/05/05 06:45:04;;;;;;;29.55;13.10;;;;;;;;;;5060050;28;20037;-82
2023/05/05 06:47:32;;;;;;;22.73;12.40;;;;;;;;;;5037534;28;20048;-82
2023/05/05 06:49:57;;;;;;;21.17;11.52;;;;;;;;;;5056481;28;20025;-80
2023/05/05 06:52:25;;;;;;;24.50;10.70;;;;;;;;;;5048550;28;20055;-79
2023/05/05 06:54:53;;;;;;;22.63;10.35;;;;;;;;;;5056080;28;20060;-79
2023/05/05 06:57:19;;;;;;;20.27;9.55;;;;;;;;;;5028253;28;20025;-79
2023/05/05 06:59:44;;;;;;;16.17;9.25;;;;;;;;;;5062230;28;20029;-81
2023/05/05 07:02:10;;;;;;;15.80;9.05;;;;;;;;;;5061755;28;20032;-78
2023/05/05 07:04:36;;;;;;;16.30;9.27;;;;;;;;;;5060056;28;20060;-80
2023/05/05 07:07:01;;;;;;;15.88;9.52;;;;;;;;;;5049861;28;20147;-79
2023/05/05 07:09:27;;;;;;;19.80;8.95;;;;;;;;;;5063006;28;20045;-81
2023/05/05 07:11:53;;;;;;;13.68;8.60;;;;;;;;;;5061073;28;20040;-81
2023/05/05 07:14:18;;;;;;;15.35;8.40;;;;;;;;;;5059401;28;20014;-81
2023/05/05 07:16:44;;;;;;;13.93;7.85;;;;;;;;;;5060191;28;20037;-80
2023/05/05 07:19:09;;;;;;;17.80;8.95;;;;;;;;;;5044664;28;20028;-79
2023/05/05 07:21:35;;;;;;;11.20;7.65;;;;;;;;;;5061085;28;20043;-80
2023/05/05 07:24:04;;;;;;;15.15;7.95;;;;;;;;;;5063646;28;20037;-82
2023/05/05 07:26:29;;;;;;;11.25;7.63;;;;;;;;;;5062634;28;20615;-82
2023/05/05 07:28:57;;;;;;;8.95;6.35;;;;;;;;;;5061930;28;20068;-80
2023/05/05 07:32:08;;;;;;;11.45;7.03;;;;;;;;;;5053646;28;20029;-78
2023/05/05 07:34:35;;;;;;;8.15;5.78;;;;;;;;;;5058447;28;20042;-78
2023/05/05 07:37:02;;;;;;;9.75;5.63;;;;;;;;;;5054103;28;20029;-83
2023/05/05 07:39:27;;;;;;;9.98;5.72;;;;;;;;;;5059255;28;20043;-81
2023/05/05 07:41:53;;;;;;;9.93;5.47;;;;;;;;;;5058259;28;20170;-81
2023/05/05 07:44:18;;;;;;;12.52;5.20;;;;;;;;;;5059697;28;20113;-82
2023/05/05 07:46:43;;;;;;;6.53;4.68;;;;;;;;;;5060553;28;20052;-80
2023/05/05 07:49:09;;;;;;;11.40;7.90;;;;;;;;;;5055017;28;20035;-82
2023/05/05 07:52:10;;;;;;;4.47;3.30;;;;;;;;;;5061420;28;20029;-82
2023/05/05 07:57:13;;;;;;;6.85;3.70;;;;;;;;;;5266770;22;20064;-84
2023/05/05 07:59:47;;;;;;;5.13;4.35;;;;;;;;;;5050515;28;20053;-80
2023/05/05 08:02:14;;;;;;;8.43;4.85;;;;;;;;;;5052727;28;20040;-80
2023/05/05 08:04:43;;;;;;;7.20;4.20;;;;;;;;;;5051104;28;20041;-80
2023/05/05 08:07:15;;;;;;;6.45;4.20;;;;;;;;;;5058481;28;20043;-81
2023/05/05 08:09:40;;;;;;;5.93;4.72;;;;;;;;;;5050399;28;20120;-79
2023/05/05 08:12:06;;;;;;;8.65;5.03;;;;;;;;;;5051666;28;20117;-81
2023/05/05 08:20:54;;;;;;;5.43;4.32;;;;;;;;;;5028200;28;20455;-81
2023/05/05 08:23:25;;;;;;;5.43;4.28;;;;;;;;;;5039574;28;20029;-84
2023/05/05 08:25:51;;;;;;;6.93;4.38;;;;;;;;;;5020590;28;20038;-84
2023/05/05 08:40:57;;;;;;;5.10;4.15;;;;;;;;;;1499319;26;20064;-82
2023/05/05 08:43:23;;;;;;;10.23;4.60;;;;;;;;;;5067205;28;20041;-83
2023/05/05 08:45:50;;;;;;;8.10;5.00;;;;;;;;;;5054726;28;20092;-82
2023/05/05 08:55:14;;;;;;;8.65;4.90;;;;;;;;;;5056082;22;20067;-81
2023/05/05 08:57:50;;;;;;;6.00;4.55;;;;;;;;;;5011049;28;20073;-81
2023/05/05 09:00:17;;;;;;;5.30;4.45;;;;;;;;;;5043179;28;20057;-83
2023/05/05 09:02:43;;;;;;;6.85;4.25;;;;;;;;;;5017938;28;20044;-81
2023/05/05 09:05:08;;;;;;;5.57;4.60;;;;;;;;;;5015580;28;20033;-82
2023/05/05 09:07:34;;;;;;;7.32;4.70;;;;;;;;;;5017275;28;20091;-82
2023/05/05 09:10:02;;;;;;;6.45;4.55;;;;;;;;;;5020099;28;20087;-82
2023/05/05 09:12:30;;;;;;;6.90;4.40;;;;;;;;;;5018886;28;20045;-81
2023/05/05 09:14:57;;;;;;;6.13;4.32;;;;;;;;;;5016732;28;20030;-81
2023/05/05 09:17:26;;;;;;;7.15;4.85;;;;;;;;;;5017427;28;20033;-82
2023/05/05 09:20:03;;;;;;;5.20;4.28;;;;;;;;;;5017324;28;20690;-82
2023/05/05 09:22:33;;;;;;;9.05;4.55;;;;;;;;;;5018589;28;20069;-82
2023/05/05 09:24:58;;;;;;;5.40;4.18;;;;;;;;;;5001692;28;20043;-82
2023/05/05 09:27:23;;;;;;;6.63;4.40;;;;;;;;;;5034617;28;20109;-81
2023/05/05 09:29:49;;;;;;;6.97;5.00;;;;;;;;;;5033637;28;20045;-82
2023/05/05 09:32:16;;;;;;;7.65;4.50;;;;;;;;;;5019444;28;20064;-81
2023/05/05 09:34:41;;;;;;;9.82;5.20;;;;;;;;;;5004593;28;20075;-82
2023/05/05 09:37:08;;;;;;;6.18;4.63;;;;;;;;;;5019914;28;20038;-81
2023/05/05 09:39:36;;;;;;;8.45;4.70;;;;;;;;;;5034807;28;20107;-83
2023/05/05 09:42:04;;;;;;;8.52;5.00;;;;;;;;;;5003204;28;20068;-82
2023/05/05 09:44:38;;;;;;;6.50;4.72;;;;;;;;;;5025605;28;20120;-81
2023/05/05 09:47:04;;;;;;;7.53;4.60;;;;;;;;;;5024070;28;20029;-82
2023/05/05 09:49:29;;;;;;;6.53;4.78;;;;;;;;;;5031647;28;20017;-80
2023/05/05 09:51:56;;;;;;;10.43;4.68;;;;;;;;;;5015335;28;20067;-80
2023/05/05 09:54:26;;;;;;;7.25;4.93;;;;;;;;;;5018862;28;20136;-81
2023/05/05 09:56:51;;;;;;;7.15;4.40;;;;;;;;;;5035373;28;20024;-82
2023/05/05 09:59:17;;;;;;;5.22;4.70;;;;;;;;;;5021890;28;20098;-84
2023/05/05 10:01:42;;;;;;;7.45;4.75;;;;;;;;;;5019831;28;20479;-81
2023/05/05 10:04:28;;;;;;;6.30;5.05;;;;;;;;;;5035257;28;20207;-82
2023/05/05 10:06:54;;;;;;;8.75;4.85;;;;;;;;;;5052162;28;20056;-82
2023/05/05 10:09:19;;;;;;;10.23;4.43;;;;;;;;;;5052179;28;20378;-79
2023/05/05 10:11:46;;;;;;;5.63;4.47;;;;;;;;;;5033976;28;20032;-79
2023/05/05 10:14:16;;;;;;;7.80;4.90;;;;;;;;;;5018630;28;20028;-79
2023/05/05 10:16:50;;;;;;;9.23;4.65;;;;;;;;;;5018439;28;20084;-80
2023/05/05 10:19:22;;;;;;;7.00;4.50;;;;;;;;;;5018236;28;20025;-81
2023/05/05 10:21:53;;;;;;;7.72;4.95;;;;;;;;;;5019572;28;20025;-80
2023/05/05 10:24:34;;;;;;;8.80;5.28;;;;;;;;;;5009674;28;20375;-82
2023/05/05 10:27:02;;;;;;;5.97;4.80;;;;;;;;;;5035700;28;20033;-82
2023/05/05 10:29:27;;;;;;;6.88;4.78;;;;;;;;;;5018514;28;20029;-81
2023/05/05 10:31:54;;;;;;;5.68;4.82;;;;;;;;;;5041925;28;20029;-81
2023/05/05 10:34:28;;;;;;;8.30;5.28;;;;;;;;;;5002963;28;20037;-81
2023/05/05 10:36:55;;;;;;;9.57;5.50;;;;;;;;;;5026826;28;20060;-80
2023/05/05 10:39:21;;;;;;;10.43;6.10;;;;;;;;;;5031911;28;20033;-80
2023/05/05 10:41:46;;;;;;;8.82;5.18;;;;;;;;;;5003510;28;20389;-79
2023/05/05 10:44:12;;;;;;;8.93;5.82;;;;;;;;;;5000535;28;20065;-78
2023/05/05 10:46:38;;;;;;;7.70;5.57;;;;;;;;;;5015743;28;20025;-81
2023/05/05 10:49:33;;;;;;;6.80;5.20;;;;;;;;;;5019443;28;20049;-78
2023/05/05 10:52:50;;;;;;;7.78;4.78;;;;;;;;;;5004818;28;20029;-78
2023/05/05 10:55:17;;;;;;;7.40;4.90;;;;;;;;;;5032444;28;20037;-78
2023/05/05 10:57:48;;;;;;;10.45;5.03;;;;;;;;;;5031279;28;20009;-79
2023/05/05 11:00:37;;;;;;;6.38;4.78;;;;;;;;;;5045282;28;20443;-80
2023/05/05 11:03:30;;;;;;;6.60;5.22;;;;;;;;;;5040742;28;20131;-81
2023/05/05 11:08:37;;;;;;;9.75;5.47;;;;;;;;;;5050669;28;20123;-82
2023/05/05 11:11:02;;;;;;;7.43;5.07;;;;;;;;;;5018127;28;20037;-80
2023/05/05 11:13:28;;;;;;;9.75;5.47;;;;;;;;;;5020436;28;20029;-81
2023/05/05 11:15:54;;;;;;;7.53;5.07;;;;;;;;;;5037855;28;20063;-79
2023/05/05 11:18:29;;;;;;;6.88;4.80;;;;;;;;;;5021986;28;20029;-80
2023/05/05 11:20:58;;;;;;;8.50;4.90;;;;;;;;;;5041369;28;20143;-80
2023/05/05 11:23:27;;;;;;;7.70;4.90;;;;;;;;;;5058799;28;20423;-80
2023/05/05 11:25:56;;;;;;;8.70;4.97;;;;;;;;;;5004291;28;20031;-79
2023/05/05 11:28:29;;;;;;;5.70;4.40;;;;;;;;;;5053929;28;20544;-80
2023/05/05 11:30:55;;;;;;;6.97;5.07;;;;;;;;;;5034618;28;20079;-80
2023/05/05 11:33:24;;;;;;;6.05;4.53;;;;;;;;;;5035912;28;20037;-79
2023/05/05 11:35:59;;;;;;;7.07;4.68;;;;;;;;;;5053049;28;20036;-80
2023/05/05 11:38:28;;;;;;;12.05;4.90;;;;;;;;;;5019598;28;20067;-79
2023/05/05 11:40:56;;;;;;;7.63;4.60;;;;;;;;;;5035547;28;20036;-80
2023/05/05 11:43:21;;;;;;;6.97;4.45;;;;;;;;;;5037267;28;20102;-80
2023/05/05 11:45:47;;;;;;;6.43;4.60;;;;;;;;;;5036299;28;20025;-80
2023/05/05 11:48:27;;;;;;;6.85;4.25;;;;;;;;;;5034750;28;20033;-80
2023/05/05 11:50:53;;;;;;;6.55;4.03;;;;;;;;;;5033693;28;20041;-80
2023/05/05 11:53:18;;;;;;;4.82;3.85;;;;;;;;;;5018135;28;20075;-80
2023/05/05 11:55:44;;;;;;;5.18;3.85;;;;;;;;;;5052660;28;20064;-82
2023/05/05 11:58:19;;;;;;;5.15;3.92;;;;;;;;;;5034488;28;20221;-81
2023/05/05 12:00:44;;;;;;;5.55;3.80;;;;;;;;;;5028957;28;20025;-80
2023/05/05 12:03:13;;;;;;;5.63;3.97;;;;;;;;;;5035940;28;20033;-80
2023/05/05 12:05:39;;;;;;;6.00;4.43;;;;;;;;;;5034444;28;20051;-80
2023/05/05 12:08:05;;;;;;;4.75;3.90;;;;;;;;;;5018579;28;20029;-81
2023/05/05 12:10:30;;;;;;;5.80;3.78;;;;;;;;;;5034863;28;20033;-80
2023/05/05 12:12:56;;;;;;;5.82;4.03;;;;;;;;;;5035517;28;20394;-80
2023/05/05 12:15:29;;;;;;;5.80;3.70;;;;;;;;;;5052925;28;20458;-81
2023/05/05 12:17:54;;;;;;;5.20;3.70;;;;;;;;;;5034867;28;20090;-80
2023/05/05 12:20:28;;;;;;;5.45;3.33;;;;;;;;;;5019724;28;20037;-80
2023/05/05 12:22:59;;;;;;;6.18;3.65;;;;;;;;;;5036520;28;20044;-80
2023/05/05 12:25:25;;;;;;;6.93;3.75;;;;;;;;;;5036821;28;20084;-80
2023/05/05 12:27:51;;;;;;;5.47;4.03;;;;;;;;;;5053802;28;20387;-80
2023/05/05 12:30:17;;;;;;;11.10;4.20;;;;;;;;;;5036538;28;20443;-80
2023/05/05 12:32:43;;;;;;;5.43;4.35;;;;;;;;;;5052998;28;20047;-81
2023/05/05 12:35:08;;;;;;;5.50;4.00;;;;;;;;;;5036168;28;20029;-80
2023/05/05 12:37:34;;;;;;;4.45;3.72;;;;;;;;;;5019897;28;20402;-80
2023/05/05 12:39:59;;;;;;;6.35;3.33;;;;;;;;;;5053875;28;20024;-80
2023/05/05 12:42:25;;;;;;;5.13;3.60;;;;;;;;;;5035992;28;20060;-81
2023/05/05 12:44:51;;;;;;;3.80;3.40;;;;;;;;;;5036302;28;20055;-80
2023/05/05 12:47:30;;;;;;;3.65;3.30;;;;;;;;;;5053960;28;20037;-80
2023/05/05 12:49:58;;;;;;;3.92;3.53;;;;;;;;;;5020227;28;20037;-80
2023/05/05 12:52:37;;;;;;;4.78;3.55;;;;;;;;;;5020353;28;20045;-81
2023/05/05 12:55:02;;;;;;;5.75;3.80;;;;;;;;;;5021026;28;20041;-81
2023/05/05 12:57:28;;;;;;;6.15;3.78;;;;;;;;;;5054061;28;20132;-80
2023/05/05 12:59:53;;;;;;;4.38;3.70;;;;;;;;;;5035757;28;20040;-81
2023/05/05 13:02:19;;;;;;;4.50;3.70;;;;;;;;;;5044855;28;20139;-80
2023/05/05 13:04:49;;;;;;;5.20;3.25;;;;;;;;;;5019961;28;20133;-81
2023/05/05 13:07:15;;;;;;;4.00;3.00;;;;;;;;;;5003225;28;20041;-82
2023/05/05 13:09:40;;;;;;;7.03;3.42;;;;;;;;;;5036095;28;20231;-82
2023/05/05 13:12:09;;;;;;;3.78;3.25;;;;;;;;;;5035698;28;20378;-83
2023/05/05 13:14:35;;;;;;;6.97;3.53;;;;;;;;;;5053492;28;20033;-83
2023/05/05 13:17:00;;;;;;;8.35;3.20;;;;;;;;;;5054137;28;20536;-81
2023/05/05 13:19:26;;;;;;;4.82;3.10;;;;;;;;;;5019362;28;20488;-82
2023/05/05 13:21:55;;;;;;;4.65;3.67;;;;;;;;;;5035623;28;20082;-81
2023/05/05 13:24:21;;;;;;;6.47;3.40;;;;;;;;;;5053750;28;20037;-82
2023/05/05 13:26:46;;;;;;;5.05;3.08;;;;;;;;;;5035871;28;20461;-82
2023/05/05 13:29:12;;;;;;;4.72;3.20;;;;;;;;;;5053784;28;20124;-81
2023/05/05 13:31:37;;;;;;;5.32;3.28;;;;;;;;;;5058050;28;20465;-82
2023/05/05 13:34:03;;;;;;;5.22;3.40;;;;;;;;;;5040419;28;20052;-82
2023/05/05 13:36:28;;;;;;;3.90;3.40;;;;;;;;;;5059875;28;20039;-81
2023/05/05 13:38:53;;;;;;;3.22;2.92;;;;;;;;;;5042042;28;20036;-82
2023/05/05 13:41:19;;;;;;;3.65;3.05;;;;;;;;;;5040659;28;20413;-82
2023/05/05 13:43:44;;;;;;;3.90;3.30;;;;;;;;;;5057189;28;20028;-81
2023/05/05 13:46:12;;;;;;;3.67;2.85;;;;;;;;;;5039318;28;20028;-81
2023/05/05 13:48:40;;;;;;;3.40;3.03;;;;;;;;;;5057198;28;20075;-81
2023/05/05 13:51:06;;;;;;;3.38;2.95;;;;;;;;;;5057374;28;20056;-81
2023/05/05 13:53:40;;;;;;;4.78;3.00;;;;;;;;;;5022463;28;20462;-82
2023/05/05 13:56:06;;;;;;;4.18;3.00;;;;;;;;;;5040329;28;20115;-82
2023/05/05 13:58:31;;;;;;;4.07;2.75;;;;;;;;;;5038839;28;20109;-80
2023/05/05 14:00:57;;;;;;;3.95;3.03;;;;;;;;;;5039219;28;20029;-81
2023/05/05 14:03:22;;;;;;;5.57;3.15;;;;;;;;;;5064637;28;20036;-81
2023/05/05 14:05:49;;;;;;;5.28;3.28;;;;;;;;;;5063662;28;20021;-81
2023/05/05 14:08:14;;;;;;;3.70;3.28;;;;;;;;;;5039640;28;20033;-81
2023/05/05 14:10:40;;;;;;;3.97;3.35;;;;;;;;;;5056792;28;20036;-81
2023/05/05 14:13:06;;;;;;;5.32;3.30;;;;;;;;;;5038443;28;20029;-81
2023/05/05 14:15:31;;;;;;;4.53;3.45;;;;;;;;;;5038800;28;20116;-80
2023/05/05 14:17:58;;;;;;;4.35;3.28;;;;;;;;;;5038646;28;20060;-81
2023/05/05 14:20:24;;;;;;;5.32;3.47;;;;;;;;;;5056764;28;20035;-82
2023/05/05 14:22:49;;;;;;;5.18;3.40;;;;;;;;;;5038838;28;20040;-81
2023/05/05 14:25:15;;;;;;;3.90;3.40;;;;;;;;;;5056217;28;20032;-81
2023/05/05 14:27:40;;;;;;;4.03;3.50;;;;;;;;;;5056121;28;20409;-81
2023/05/05 14:30:06;;;;;;;4.40;3.30;;;;;;;;;;5038276;28;20430;-81
2023/05/05 14:32:31;;;;;;;4.57;3.58;;;;;;;;;;5038525;28;20032;-81
2023/05/05 14:34:57;;;;;;;4.03;3.45;;;;;;;;;;5056145;28;20036;-80
2023/05/05 14:37:22;;;;;;;4.47;3.20;;;;;;;;;;5038375;28;20119;-82
2023/05/05 14:39:48;;;;;;;4.63;3.35;;;;;;;;;;5038128;28;20036;-81
2023/05/05 14:42:13;;;;;;;3.35;3.05;;;;;;;;;;5055657;28;20067;-81
2023/05/05 14:44:38;;;;;;;6.72;3.13;;;;;;;;;;5038219;28;20053;-81
2023/05/05 14:47:04;;;;;;;4.22;3.00;;;;;;;;;;5056200;28;20440;-80
2023/05/05 14:49:29;;;;;;;4.93;3.50;;;;;;;;;;5021518;28;20442;-82
2023/05/05 14:51:55;;;;;;;6.85;3.60;;;;;;;;;;5022173;28;20033;-81
2023/05/05 14:54:21;;;;;;;4.28;3.28;;;;;;;;;;5055748;28;20049;-81
2023/05/05 14:56:47;;;;;;;4.00;3.35;;;;;;;;;;5055700;28;20063;-81
2023/05/05 14:59:12;;;;;;;3.83;3.20;;;;;;;;;;5038331;28;20059;-81
2023/05/05 15:01:38;;;;;;;4.85;3.25;;;;;;;;;;5056596;28;20120;-80
2023/05/05 15:04:03;;;;;;;4.78;3.38;;;;;;;;;;5037896;28;20086;-82
2023/05/05 15:06:29;;;;;;;4.20;3.17;;;;;;;;;;5047846;28;20036;-80
2023/05/05 15:08:54;;;;;;;4.00;3.30;;;;;;;;;;5055924;28;20052;-81
2023/05/05 15:11:20;;;;;;;4.88;3.20;;;;;;;;;;5037836;28;20547;-81
2023/05/05 15:13:46;;;;;;;5.15;3.30;;;;;;;;;;5037403;28;20378;-81
2023/05/05 15:16:11;;;;;;;3.65;3.13;;;;;;;;;;5021377;28;20021;-81
2023/05/05 15:18:37;;;;;;;7.13;3.35;;;;;;;;;;5038382;28;20126;-80
2023/05/05 15:21:03;;;;;;;3.65;3.03;;;;;;;;;;5055478;28;20108;-80
2023/05/05 15:23:28;;;;;;;4.28;3.30;;;;;;;;;;5037966;28;20029;-80
2023/05/05 15:25:54;;;;;;;3.83;3.05;;;;;;;;;;5055349;28;20036;-80